createdAt,value
2018-11-28T00:00:36.659Z,3.01
2018-11-28T00:03:08.724Z,2.97
2018-11-28T00:05:37.551Z,2.95
2018-11-28T00:08:21.258Z,2.92
2018-11-28T00:10:50.062Z,2.91
2018-11-28T00:13:18.862Z,2.91
2018-11-28T00:15:47.655Z,2.91
2018-11-28T00:18:16.460Z,2.90
2018-11-28T00:20:45.267Z,2.87
2018-11-28T00:23:14.064Z,2.86
2018-11-28T00:25:42.919Z,2.84
2018-11-28T00:28:11.728Z,2.83
2018-11-28T00:30:40.503Z,2.79
2018-11-28T00:33:09.320Z,2.77
2018-11-28T00:35:38.158Z,2.76
2018-11-28T00:38:06.977Z,2.75
2018-11-28T00:40:35.802Z,2.74
2018-11-28T00:43:05.099Z,2.71
2018-11-28T00:45:33.920Z,2.70
2018-11-28T00:48:02.726Z,2.67
2018-11-28T00:50:31.567Z,2.65
2018-11-28T00:53:00.384Z,2.63
2018-11-28T00:55:29.187Z,2.62
2018-11-28T00:57:58.060Z,2.62
2018-11-28T01:00:27.524Z,2.61
2018-11-28T01:02:56.326Z,2.58
2018-11-28T01:05:25.130Z,2.58
2018-11-28T01:07:54.862Z,2.57
2018-11-28T01:10:24.673Z,2.54
2018-11-28T01:12:54.242Z,2.53
2018-11-28T01:15:23.038Z,2.49
2018-11-28T01:17:51.862Z,2.48
2018-11-28T01:20:21.931Z,2.48
2018-11-28T01:22:50.748Z,2.45
2018-11-28T01:25:20.645Z,2.40
2018-11-28T01:27:49.986Z,2.38
2018-11-28T01:30:23.805Z,2.36
2018-11-28T01:32:52.636Z,2.32
2018-11-28T01:35:22.027Z,2.31
2018-11-28T01:37:50.829Z,2.32
2018-11-28T01:40:20.820Z,2.31
2018-11-28T01:42:49.636Z,2.28
2018-11-28T01:45:19.332Z,2.28
2018-11-28T01:47:48.124Z,2.24
2018-11-28T01:50:17.886Z,2.24
2018-11-28T01:52:46.745Z,2.19
2018-11-28T01:55:16.426Z,2.21
2018-11-28T01:57:45.299Z,2.17
2018-11-28T02:00:16.962Z,2.13
2018-11-28T02:02:45.981Z,2.11
2018-11-28T02:05:14.828Z,2.08
2018-11-28T02:07:43.690Z,2.05
2018-11-28T02:10:14.060Z,2.01
2018-11-28T02:12:42.928Z,1.98
2018-11-28T02:15:13.935Z,1.97
2018-11-28T02:17:42.824Z,1.97
2018-11-28T02:20:12.707Z,1.95
2018-11-28T02:22:41.554Z,1.97
2018-11-28T02:25:11.686Z,1.97
2018-11-28T02:27:40.516Z,1.98
2018-11-28T02:30:20.760Z,1.97
2018-11-28T02:32:50.030Z,1.99
2018-11-28T02:35:19.311Z,2.01
2018-11-28T02:37:48.755Z,2.03
2018-11-28T02:40:19.043Z,2.04
2018-11-28T02:42:49.663Z,2.06
2018-11-28T02:45:19.437Z,2.05
2018-11-28T02:47:48.248Z,2.08
2018-11-28T02:50:17.123Z,2.13
2018-11-28T02:52:45.945Z,2.16
2018-11-28T02:55:15.614Z,2.18
2018-11-28T02:57:45.560Z,2.21
2018-11-28T03:00:20.452Z,2.22
2018-11-28T03:02:49.248Z,2.24
2018-11-28T03:05:18.180Z,2.28
2018-11-28T03:07:46.992Z,2.30
2018-11-28T03:10:21.189Z,2.31
2018-11-28T03:12:49.978Z,2.31
2018-11-28T03:15:25.064Z,2.33
2018-11-28T03:17:53.926Z,2.38
2018-11-28T03:20:22.732Z,2.40
2018-11-28T03:22:51.523Z,2.42
2018-11-28T03:25:20.348Z,2.46
2018-11-28T03:27:49.184Z,2.48
2018-11-28T03:30:17.994Z,2.51
2018-11-28T03:32:46.812Z,2.54
2018-11-28T03:35:16.122Z,2.56
2018-11-28T03:37:45.004Z,2.59
2018-11-28T03:40:13.811Z,2.61
2018-11-28T03:42:42.801Z,2.63
2018-11-28T03:45:13.572Z,2.64
2018-11-28T03:47:43.093Z,2.66
2018-11-28T03:50:12.807Z,2.66
2018-11-28T03:52:41.632Z,2.65
2018-11-28T03:55:11.841Z,2.66
2018-11-28T03:57:41.268Z,2.69
2018-11-28T04:00:12.250Z,2.72
2018-11-28T04:02:41.042Z,2.76
2018-11-28T04:05:09.898Z,2.78
2018-11-28T04:07:38.690Z,2.79
2018-11-28T04:10:09.159Z,2.81
2018-11-28T04:12:38.151Z,2.82
2018-11-28T04:15:11.455Z,2.86
2018-11-28T04:17:40.252Z,2.89
2018-11-28T04:20:11.882Z,2.92
2018-11-28T04:22:41.697Z,2.94
2018-11-28T04:25:11.396Z,2.96
2018-11-28T04:27:40.243Z,2.95
2018-11-28T04:30:12.135Z,2.99
2018-11-28T04:32:40.947Z,3.03
2018-11-28T04:35:15.263Z,3.06
2018-11-28T04:37:44.854Z,3.11
2018-11-28T04:40:14.496Z,3.11
2018-11-28T04:42:43.548Z,3.15
2018-11-28T04:45:17.163Z,3.17
2018-11-28T04:47:46.540Z,3.19
2018-11-28T04:50:15.358Z,3.22
2018-11-28T04:52:44.183Z,3.25
2018-11-28T04:55:14.060Z,3.27
2018-11-28T04:57:43.284Z,3.30
2018-11-28T05:00:22.896Z,3.31
2018-11-28T05:02:52.302Z,3.33
2018-11-28T05:05:21.112Z,3.32
2018-11-28T05:07:50.639Z,3.34
2018-11-28T05:10:21.288Z,3.33
2018-11-28T05:12:51.913Z,3.35
2018-11-28T05:15:21.663Z,3.36
2018-11-28T05:17:53.316Z,3.40
2018-11-28T05:20:26.119Z,3.41
2018-11-28T05:22:55.083Z,3.42
2018-11-28T05:25:24.828Z,3.45
2018-11-28T05:27:54.604Z,3.47
2018-11-28T05:30:26.010Z,3.48
2018-11-28T05:32:54.848Z,3.52
2018-11-28T05:35:25.188Z,3.55
2018-11-28T05:37:54.204Z,3.59
2018-11-28T05:40:23.739Z,3.58
2018-11-28T05:42:52.635Z,3.59
2018-11-28T05:45:21.466Z,3.61
2018-11-28T05:47:50.272Z,3.63
2018-11-28T05:50:22.670Z,3.62
2018-11-28T05:52:51.561Z,3.64
2018-11-28T05:55:21.542Z,3.65
2018-11-28T05:57:50.367Z,3.66
2018-11-28T06:00:25.140Z,3.68
2018-11-28T06:02:53.948Z,3.70
2018-11-28T06:05:22.723Z,3.71
2018-11-28T06:07:51.510Z,3.75
2018-11-28T06:10:20.322Z,3.75
2018-11-28T06:12:49.119Z,3.76
2018-11-28T06:15:18.006Z,3.77
2018-11-28T06:17:46.808Z,3.76
2018-11-28T06:20:16.016Z,3.79
2018-11-28T06:22:45.795Z,3.82
2018-11-28T06:25:16.733Z,3.86
2018-11-28T06:27:44.567Z,3.89
2018-11-28T06:30:15.147Z,3.91
2018-11-28T06:32:44.003Z,3.93
2018-11-28T06:35:13.325Z,3.94
2018-11-28T06:37:42.315Z,3.98
2018-11-28T06:40:15.663Z,3.98
2018-11-28T06:42:45.592Z,3.99
2018-11-28T06:45:19.961Z,3.99
2018-11-28T06:47:48.848Z,4.01
2018-11-28T06:50:18.504Z,4.03
2018-11-28T06:52:49.467Z,4.06
2018-11-28T06:55:20.404Z,4.09
2018-11-28T06:57:49.223Z,4.08
2018-11-28T07:00:21.762Z,4.08
2018-11-28T07:02:51.706Z,4.11
2018-11-28T07:05:20.827Z,4.12
2018-11-28T07:07:49.785Z,4.13
2018-11-28T07:10:20.583Z,4.16
2018-11-28T07:12:49.429Z,4.22
2018-11-28T07:15:20.406Z,4.25
2018-11-28T07:17:49.262Z,4.26
2018-11-28T07:20:18.068Z,4.31
2018-11-28T07:22:46.906Z,4.33
2018-11-28T07:25:17.462Z,4.37
2018-11-28T07:27:47.789Z,4.43
2018-11-28T07:30:18.546Z,4.46
2018-11-28T07:32:47.942Z,4.47
2018-11-28T07:35:16.752Z,4.49
2018-11-28T07:37:45.577Z,4.50
2018-11-28T07:40:17.424Z,4.53
2018-11-28T07:42:53.259Z,4.57
2018-11-28T07:45:22.079Z,4.60
2018-11-28T07:47:51.175Z,4.65
2018-11-28T07:50:19.976Z,4.63
2018-11-28T07:52:48.811Z,4.64
2018-11-28T07:55:17.687Z,4.66
2018-11-28T07:57:46.891Z,4.70
2018-11-28T08:00:16.075Z,4.71
2018-11-28T08:02:45.075Z,4.74
2018-11-28T08:05:13.870Z,4.78
2018-11-28T08:07:42.823Z,4.80
2018-11-28T08:10:16.964Z,4.82
2018-11-28T08:12:45.754Z,4.82
2018-11-28T08:15:14.575Z,4.83
2018-11-28T08:17:43.736Z,4.89
2018-11-28T08:20:12.538Z,4.95
2018-11-28T08:22:41.342Z,4.99
2018-11-28T08:25:13.251Z,5.02
2018-11-28T08:27:42.910Z,5.03
2018-11-28T08:30:24.486Z,5.07
2018-11-28T08:33:03.844Z,5.13
2018-11-28T08:35:32.941Z,5.20
2018-11-28T08:38:01.747Z,5.21
2018-11-28T08:40:30.721Z,5.23
2018-11-28T08:42:59.547Z,5.25
2018-11-28T08:45:28.423Z,5.25
2018-11-28T08:47:58.304Z,5.28
2018-11-28T08:50:30.608Z,5.32
2018-11-28T08:52:59.431Z,5.40
2018-11-28T08:55:28.301Z,5.42
2018-11-28T08:57:57.097Z,5.47
2018-11-28T09:00:26.657Z,5.48
2018-11-28T09:02:57.390Z,5.52
2018-11-28T09:05:26.275Z,5.58
2018-11-28T09:07:55.107Z,5.64
2018-11-28T09:10:23.944Z,5.66
2018-11-28T09:12:52.724Z,5.72
2018-11-28T09:15:23.910Z,5.72
2018-11-28T09:17:52.717Z,5.69
2018-11-28T09:20:21.531Z,5.75
2018-11-28T09:22:50.335Z,5.74
2018-11-28T09:25:19.731Z,5.76
2018-11-28T09:27:52.645Z,5.77
2018-11-28T09:30:21.453Z,5.79
2018-11-28T09:32:50.640Z,5.85
2018-11-28T09:35:19.731Z,5.94
2018-11-28T09:37:48.549Z,5.93
2018-11-28T09:40:19.376Z,5.97
2018-11-28T09:42:48.496Z,6.00
2018-11-28T09:45:18.128Z,6.08
2018-11-28T09:47:46.927Z,6.15
2018-11-28T09:50:17.643Z,6.21
2018-11-28T09:52:46.472Z,6.25
2018-11-28T09:55:17.183Z,6.30
2018-11-28T09:57:46.016Z,6.34
2018-11-28T10:00:21.133Z,6.41
2018-11-28T10:02:51.015Z,6.39
2018-11-28T10:05:21.863Z,6.45
2018-11-28T10:07:50.770Z,6.51
2018-11-28T10:10:20.586Z,6.55
2018-11-28T10:12:49.392Z,6.55
2018-11-28T10:15:20.081Z,6.64
2018-11-28T10:17:49.758Z,6.67
2018-11-28T10:20:20.043Z,6.70
2018-11-28T10:22:49.807Z,6.73
2018-11-28T10:25:20.452Z,6.79
2018-11-28T10:27:52.329Z,6.84
2018-11-28T10:30:24.093Z,6.85
2018-11-28T10:32:53.387Z,6.87
2018-11-28T10:35:22.195Z,6.89
2018-11-28T10:37:51.143Z,6.93
2018-11-28T10:40:20.983Z,6.95
2018-11-28T10:42:54.771Z,6.97
2018-11-28T10:45:24.434Z,6.97
2018-11-28T10:47:53.224Z,7.02
2018-11-28T10:50:22.105Z,7.05
2018-11-28T10:52:50.875Z,7.08
2018-11-28T10:55:21.363Z,7.09
2018-11-28T10:57:56.956Z,7.13
2018-11-28T11:01:37.708Z,7.05
2018-11-28T11:04:11.790Z,7.10
2018-11-28T11:06:46.093Z,7.21
2018-11-28T11:09:20.326Z,7.23
2018-11-28T11:12:58.211Z,7.27
2018-11-28T11:15:27.046Z,7.20
2018-11-28T11:18:01.918Z,7.20
2018-11-28T11:20:28.759Z,7.31
2018-11-28T11:22:57.599Z,7.40
2018-11-28T11:25:26.562Z,7.47
2018-11-28T11:27:55.981Z,7.55
2018-11-28T11:30:24.760Z,7.51
2018-11-28T11:32:53.578Z,7.51
2018-11-28T11:35:22.382Z,7.52
2018-11-28T11:37:51.188Z,7.53
2018-11-28T11:40:20.003Z,7.55
2018-11-28T11:42:48.820Z,7.57
2018-11-28T11:45:17.628Z,7.58
2018-11-28T11:47:46.459Z,7.65
2018-11-28T11:50:17.463Z,7.70
2018-11-28T11:52:46.292Z,7.77
2018-11-28T11:55:16.860Z,7.84
2018-11-28T11:57:45.783Z,7.96
2018-11-28T12:00:19.691Z,8.01
2018-11-28T12:02:51.430Z,8.07
2018-11-28T12:05:21.066Z,8.07
2018-11-28T12:07:49.074Z,8.12
2018-11-28T12:10:17.888Z,8.08
2018-11-28T12:12:51.655Z,7.99
2018-11-28T12:15:17.120Z,7.99
2018-11-28T12:17:47.204Z,7.97
2018-11-28T12:20:20.829Z,7.96
2018-11-28T12:22:49.641Z,7.95
2018-11-28T12:25:18.449Z,7.94
2018-11-28T12:27:47.243Z,7.94
2018-11-28T12:30:16.198Z,7.96
2018-11-28T12:32:45.060Z,7.89
2018-11-28T12:35:15.280Z,7.94
2018-11-28T12:37:44.172Z,7.92
2018-11-28T12:40:13.989Z,7.91
2018-11-28T12:42:45.356Z,7.91
2018-11-28T12:45:18.108Z,7.87
2018-11-28T12:47:47.312Z,7.80
2018-11-28T12:50:20.310Z,7.79
2018-11-28T12:52:49.220Z,7.83
2018-11-28T12:55:18.543Z,7.84
2018-11-28T12:57:47.426Z,7.79
2018-11-28T13:00:17.503Z,7.75
2018-11-28T13:02:46.306Z,7.73
2018-11-28T13:05:23.013Z,7.72
2018-11-28T13:07:51.831Z,7.71
2018-11-28T13:10:24.844Z,7.72
2018-11-28T13:12:53.889Z,7.75
2018-11-28T13:15:23.537Z,7.72
2018-11-28T13:17:52.364Z,7.77
2018-11-28T13:20:21.596Z,7.87
2018-11-28T13:22:51.487Z,7.94
2018-11-28T13:25:23.302Z,7.97
2018-11-28T13:27:52.107Z,8.02
2018-11-28T13:30:21.723Z,7.96
2018-11-28T13:32:51.308Z,7.89
2018-11-28T13:35:21.111Z,7.93
2018-11-28T13:37:51.141Z,7.95
2018-11-28T13:40:20.524Z,7.94
2018-11-28T13:42:49.327Z,7.96
2018-11-28T13:45:21.372Z,7.97
2018-11-28T13:47:52.290Z,7.98
2018-11-28T13:50:21.188Z,7.95
2018-11-28T13:52:51.057Z,7.92
2018-11-28T13:55:39.744Z,7.92
2018-11-28T13:57:51.399Z,7.98
2018-11-28T14:00:20.249Z,8.01
2018-11-28T14:02:49.106Z,7.99
2018-11-28T14:05:17.940Z,7.98
2018-11-28T14:07:53.456Z,7.95
2018-11-28T14:10:22.206Z,7.95
2018-11-28T14:12:51.035Z,7.94
2018-11-28T14:15:21.717Z,7.86
2018-11-28T14:17:56.796Z,7.88
2018-11-28T14:20:25.597Z,7.91
2018-11-28T14:22:54.404Z,7.91
2018-11-28T14:25:24.380Z,7.89
2018-11-28T14:27:53.255Z,7.87
2018-11-28T14:30:23.003Z,7.85
2018-11-28T14:32:52.199Z,7.86
2018-11-28T14:35:21.689Z,7.84
2018-11-28T14:37:50.637Z,7.82
2018-11-28T14:40:20.440Z,7.83
2018-11-28T14:42:51.381Z,7.83
2018-11-28T14:45:20.455Z,7.81
2018-11-28T14:47:51.077Z,7.77
2018-11-28T14:50:22.727Z,7.77
2018-11-28T14:52:52.138Z,7.73
2018-11-28T14:55:22.083Z,7.71
2018-11-28T14:57:50.894Z,7.72
2018-11-28T15:00:21.000Z,7.70
2018-11-28T15:02:52.118Z,7.63
2018-11-28T15:05:26.035Z,7.59
2018-11-28T15:07:58.765Z,7.58
2018-11-28T15:10:35.318Z,7.55
2018-11-28T15:13:04.397Z,7.54
2018-11-28T15:15:33.523Z,7.55
2018-11-28T15:18:03.416Z,7.56
2018-11-28T15:20:32.236Z,7.49
2018-11-28T15:23:01.152Z,7.47
2018-11-28T15:25:30.001Z,7.45
2018-11-28T15:27:58.834Z,7.45
2018-11-28T15:30:27.639Z,7.45
2018-11-28T15:32:56.455Z,7.42
2018-11-28T15:35:25.357Z,7.38
2018-11-28T15:37:54.161Z,7.40
2018-11-28T15:40:22.976Z,7.34
2018-11-28T15:42:51.775Z,7.30
2018-11-28T15:45:20.613Z,7.31
2018-11-28T15:47:50.537Z,7.30
2018-11-28T15:50:19.417Z,7.29
2018-11-28T15:52:48.251Z,7.23
2018-11-28T15:55:18.114Z,7.24
2018-11-28T15:57:46.683Z,7.26
2018-11-28T16:00:19.295Z,7.27
2018-11-28T16:02:48.174Z,7.24
2018-11-28T16:05:16.961Z,7.22
2018-11-28T16:07:45.773Z,7.21
2018-11-28T16:10:20.282Z,7.16
2018-11-28T16:12:49.344Z,7.15
2018-11-28T16:15:20.745Z,7.13
2018-11-28T16:17:49.601Z,7.13
2018-11-28T16:20:19.411Z,7.05
2018-11-28T16:22:48.260Z,7.01
2018-11-28T16:25:17.068Z,7.01
2018-11-28T16:27:49.203Z,6.95
2018-11-28T16:30:19.367Z,6.98
2018-11-28T16:32:48.249Z,6.97
2018-11-28T16:35:17.784Z,7.01
2018-11-28T16:37:46.645Z,7.01
2018-11-28T16:40:16.171Z,7.00
2018-11-28T16:42:45.075Z,7.02
2018-11-28T16:45:16.863Z,7.02
2018-11-28T16:47:45.767Z,7.02
2018-11-28T16:50:15.368Z,7.03
2018-11-28T16:52:44.511Z,7.02
2018-11-28T16:55:18.249Z,7.02
2018-11-28T16:57:48.680Z,7.03
2018-11-28T17:02:59.920Z,7.04
2018-11-28T17:05:28.740Z,7.04
2018-11-28T17:08:01.946Z,6.97
2018-11-28T17:10:31.082Z,6.97
2018-11-28T17:13:00.581Z,6.99
2018-11-28T17:15:29.446Z,7.00
2018-11-28T17:17:58.364Z,7.00
2018-11-28T17:20:29.357Z,6.99
2018-11-28T17:22:59.111Z,7.01
2018-11-28T17:25:30.215Z,7.04
2018-11-28T17:27:59.107Z,7.03
2018-11-28T17:30:31.615Z,7.05
2018-11-28T17:33:00.419Z,7.04
2018-11-28T17:35:29.352Z,7.05
2018-11-28T17:37:58.248Z,7.06
2018-11-28T17:40:28.192Z,7.05
2018-11-28T17:42:58.161Z,7.08
2018-11-28T17:45:27.731Z,7.13
2018-11-28T17:47:56.543Z,7.14
2018-11-28T17:50:26.238Z,7.17
2018-11-28T17:53:06.388Z,7.18
2018-11-28T17:55:39.266Z,7.19
2018-11-28T17:58:08.727Z,7.19
2018-11-28T18:00:37.532Z,7.20
2018-11-28T18:03:06.338Z,7.21
2018-11-28T18:05:35.163Z,7.22
2018-11-28T18:08:03.964Z,7.22
2018-11-28T18:10:32.783Z,7.27
2018-11-28T18:13:08.832Z,7.29
2018-11-28T18:15:37.916Z,7.30
2018-11-28T18:18:09.078Z,7.31
2018-11-28T18:20:37.879Z,7.34
2018-11-28T18:23:08.070Z,7.37
2018-11-28T18:25:40.015Z,7.36
2018-11-28T18:28:09.156Z,7.38
2018-11-28T18:30:38.617Z,7.42
2018-11-28T18:33:08.453Z,7.44
2018-11-28T18:35:37.238Z,7.45
2018-11-28T18:38:06.205Z,7.48
2018-11-28T18:40:35.013Z,7.48
2018-11-28T18:43:03.905Z,7.49
2018-11-28T18:45:34.112Z,7.54
2018-11-28T18:48:02.935Z,7.56
2018-11-28T18:50:32.302Z,7.56
2018-11-28T18:53:01.110Z,7.58
2018-11-28T18:55:29.991Z,7.60
2018-11-28T18:57:59.224Z,7.64
2018-11-28T19:00:28.171Z,7.67
2018-11-28T19:02:57.115Z,7.71
2018-11-28T19:05:25.909Z,7.74
2018-11-28T19:07:54.843Z,7.74
2018-11-28T19:10:26.510Z,7.75
2018-11-28T19:12:53.991Z,7.79
2018-11-28T19:15:23.876Z,7.82
2018-11-28T19:17:52.971Z,7.84
2018-11-28T19:20:22.652Z,7.84
2018-11-28T19:22:52.295Z,7.85
2018-11-28T19:25:22.343Z,7.88
2018-11-28T19:27:51.174Z,7.88
2018-11-28T19:30:35.678Z,7.90
2018-11-28T19:33:05.033Z,7.90
2018-11-28T19:35:33.840Z,7.91
2018-11-28T19:38:02.714Z,7.93
2018-11-28T19:40:42.379Z,7.94
2018-11-28T19:43:11.208Z,7.94
2018-11-28T19:45:40.096Z,7.96
2018-11-28T19:48:08.904Z,7.97
2018-11-28T19:50:37.754Z,7.98
2018-11-28T19:53:07.712Z,7.99
2018-11-28T19:55:36.542Z,8.02
2018-11-28T19:58:14.099Z,8.00
2018-11-28T20:00:44.288Z,8.01
2018-11-28T20:03:13.107Z,8.04
2018-11-28T20:05:41.964Z,8.04
2018-11-28T20:08:10.809Z,8.07
2018-11-28T20:10:39.594Z,8.08
2018-11-28T20:13:09.425Z,8.08
2018-11-28T20:15:39.652Z,8.08
2018-11-28T20:18:08.515Z,8.08
2018-11-28T20:20:37.283Z,8.11
2018-11-28T20:23:06.838Z,8.14
2018-11-28T20:25:35.663Z,8.14
2018-11-28T20:28:04.452Z,8.13
2018-11-28T20:30:34.972Z,8.11
2018-11-28T20:33:03.804Z,8.12
2018-11-28T20:35:32.628Z,8.11
2018-11-28T20:38:01.411Z,8.14
2018-11-28T20:40:30.254Z,8.14
2018-11-28T20:42:59.231Z,8.13
2018-11-28T20:45:29.079Z,8.14
2018-11-28T20:47:57.892Z,8.16
2018-11-28T20:50:30.069Z,8.19
2018-11-28T20:53:07.351Z,8.21
2018-11-28T20:55:36.548Z,8.19
2018-11-28T20:58:05.467Z,8.19
2018-11-28T21:00:34.380Z,8.14
2018-11-28T21:03:03.275Z,8.12
2018-11-28T21:05:32.136Z,8.12
2018-11-28T21:08:00.963Z,8.13
2018-11-28T21:10:35.710Z,8.13
2018-11-28T21:13:05.410Z,8.15
2018-11-28T21:15:40.391Z,8.18
2018-11-28T21:18:09.367Z,8.19
2018-11-28T21:20:39.411Z,8.20
2018-11-28T21:23:10.395Z,8.24
2018-11-28T21:25:39.612Z,8.25
2018-11-28T21:28:08.460Z,8.28
2018-11-28T21:30:37.320Z,8.26
2018-11-28T21:33:07.522Z,8.28
2018-11-28T21:35:37.723Z,8.30
2018-11-28T21:38:07.293Z,8.32
2018-11-28T21:40:36.055Z,8.35
2018-11-28T21:43:05.248Z,8.37
2018-11-28T21:45:34.082Z,8.37
2018-11-28T21:48:02.890Z,8.37
2018-11-28T21:50:31.685Z,8.39
2018-11-28T21:53:00.519Z,8.43
2018-11-28T21:55:29.336Z,8.41
2018-11-28T21:57:58.164Z,8.39
2018-11-28T22:00:27.613Z,8.43
2018-11-28T22:02:56.440Z,8.46
2018-11-28T22:05:26.271Z,8.47
2018-11-28T22:07:56.101Z,8.49
2018-11-28T22:10:25.730Z,8.53
2018-11-28T22:12:56.002Z,8.55
2018-11-28T22:15:24.811Z,8.56
2018-11-28T22:17:54.591Z,8.60
2018-11-28T22:20:24.607Z,8.62
2018-11-28T22:22:53.524Z,8.62
2018-11-28T22:25:24.191Z,8.62
2018-11-28T22:27:53.083Z,8.64
2018-11-28T22:30:26.654Z,8.66
2018-11-28T22:32:55.479Z,8.65
2018-11-28T22:35:24.276Z,8.65
2018-11-28T22:37:53.058Z,8.65
2018-11-28T22:40:25.988Z,8.65
2018-11-28T22:42:54.778Z,8.64
2018-11-28T22:45:25.702Z,8.65
2018-11-28T22:47:54.544Z,8.67
2018-11-28T22:50:23.336Z,8.66
2018-11-28T22:52:52.471Z,8.69
2018-11-28T22:55:21.271Z,8.72
2018-11-28T22:57:50.083Z,8.77
2018-11-28T23:00:27.167Z,8.80
2018-11-28T23:03:04.209Z,8.83
2018-11-28T23:05:51.539Z,8.85
2018-11-28T23:08:21.284Z,8.87
2018-11-28T23:10:50.978Z,8.84
2018-11-28T23:13:21.277Z,8.86
2018-11-28T23:15:50.080Z,8.88
2018-11-28T23:18:18.911Z,8.89
2018-11-28T23:20:47.807Z,8.91
2018-11-28T23:23:16.719Z,8.93
2018-11-28T23:25:45.492Z,8.95
2018-11-28T23:28:14.330Z,8.98
2018-11-28T23:30:43.137Z,9.00
2018-11-28T23:33:16.148Z,9.01
2018-11-28T23:35:40.711Z,9.03
2018-11-28T23:38:09.522Z,9.07
2018-11-28T23:40:38.302Z,9.08
2018-11-28T23:43:07.083Z,9.10
2018-11-28T23:45:35.874Z,9.14
2018-11-28T23:48:05.028Z,9.13
2018-11-28T23:50:33.819Z,9.14
2018-11-28T23:53:02.659Z,9.16
2018-11-28T23:55:31.902Z,9.18
2018-11-28T23:58:00.687Z,9.20
